sensor_id;sensor_type;location;lat;lon;timestamp;P1;durP1;ratioP1;P2;durP2;ratioP2
70026;SDS011;57506;50.092;15.804;2022-11-20T00:01:07;35.87;;;13.50;;
70026;SDS011;57506;50.092;15.804;2022-11-20T00:03:43;33.90;;;14.05;;
70026;SDS011;57506;50.092;15.804;2022-11-20T00:06:11;32.72;;;12.98;;
70026;SDS011;57506;50.092;15.804;2022-11-20T00:08:38;34.50;;;13.68;;
70026;SDS011;57506;50.092;15.804;2022-11-20T00:11:07;37.27;;;14.37;;
70026;SDS011;57506;50.092;15.804;2022-11-20T00:13:35;42.15;;;14.65;;
70026;SDS011;57506;50.092;15.804;2022-11-20T00:16:01;39.78;;;16.20;;
70026;SDS011;57506;50.092;15.804;2022-11-20T00:18:29;33.97;;;13.73;;
70026;SDS011;57506;50.092;15.804;2022-11-20T00:21:04;37.97;;;15.23;;
70026;SDS011;57506;50.092;15.804;2022-11-20T00:23:32;47.22;;;16.90;;
70026;SDS011;57506;50.092;15.804;2022-11-20T00:26:01;38.30;;;14.93;;
70026;SDS011;57506;50.092;15.804;2022-11-20T00:28:31;42.97;;;15.60;;
70026;SDS011;57506;50.092;15.804;2022-11-20T00:31:01;40.63;;;13.55;;
70026;SDS011;57506;50.092;15.804;2022-11-20T00:33:30;39.50;;;13.67;;
70026;SDS011;57506;50.092;15.804;2022-11-20T00:36:00;35.30;;;12.77;;
70026;SDS011;57506;50.092;15.804;2022-11-20T00:38:27;39.40;;;13.98;;
70026;SDS011;57506;50.092;15.804;2022-11-20T00:41:01;29.80;;;12.17;;
70026;SDS011;57506;50.092;15.804;2022-11-20T00:43:30;31.17;;;12.73;;
70026;SDS011;57506;50.092;15.804;2022-11-20T00:48:25;32.13;;;12.17;;
70026;SDS011;57506;50.092;15.804;2022-11-20T00:50:51;37.10;;;13.35;;
70026;SDS011;57506;50.092;15.804;2022-11-20T00:53:16;35.78;;;11.90;;
70026;SDS011;57506;50.092;15.804;2022-11-20T00:55:42;34.63;;;12.90;;
70026;SDS011;57506;50.092;15.804;2022-11-20T00:58:08;36.83;;;13.73;;
70026;SDS011;57506;50.092;15.804;2022-11-20T01:00:33;35.83;;;12.75;;
70026;SDS011;57506;50.092;15.804;2022-11-20T01:02:59;31.07;;;12.00;;
70026;SDS011;57506;50.092;15.804;2022-11-20T01:05:24;31.25;;;12.15;;
70026;SDS011;57506;50.092;15.804;2022-11-20T01:07:50;36.55;;;13.70;;
70026;SDS011;57506;50.092;15.804;2022-11-20T01:10:15;39.00;;;13.87;;
70026;SDS011;57506;50.092;15.804;2022-11-20T01:12:42;37.65;;;13.48;;
70026;SDS011;57506;50.092;15.804;2022-11-20T01:15:08;36.43;;;13.80;;
70026;SDS011;57506;50.092;15.804;2022-11-20T01:17:33;38.80;;;14.25;;
70026;SDS011;57506;50.092;15.804;2022-11-20T01:19:59;36.20;;;13.23;;
70026;SDS011;57506;50.092;15.804;2022-11-20T01:22:24;34.33;;;13.27;;
70026;SDS011;57506;50.092;15.804;2022-11-20T01:24:50;38.85;;;14.07;;
70026;SDS011;57506;50.092;15.804;2022-11-20T01:27:15;33.10;;;12.83;;
70026;SDS011;57506;50.092;15.804;2022-11-20T01:29:41;37.43;;;13.70;;
70026;SDS011;57506;50.092;15.804;2022-11-20T01:32:06;32.60;;;13.45;;
70026;SDS011;57506;50.092;15.804;2022-11-20T01:34:32;34.13;;;12.30;;
70026;SDS011;57506;50.092;15.804;2022-11-20T01:36:57;33.80;;;12.57;;
70026;SDS011;57506;50.092;15.804;2022-11-20T01:39:24;33.73;;;12.40;;
70026;SDS011;57506;50.092;15.804;2022-11-20T01:41:51;34.83;;;12.75;;
70026;SDS011;57506;50.092;15.804;2022-11-20T01:44:55;33.17;;;12.48;;
70026;SDS011;57506;50.092;15.804;2022-11-20T01:47:34;29.63;;;11.68;;
70026;SDS011;57506;50.092;15.804;2022-11-20T01:52:39;31.10;;;12.82;;
70026;SDS011;57506;50.092;15.804;2022-11-20T01:55:12;29.25;;;11.90;;
70026;SDS011;57506;50.092;15.804;2022-11-20T01:57:42;32.90;;;13.32;;
70026;SDS011;57506;50.092;15.804;2022-11-20T02:00:12;36.15;;;13.85;;
70026;SDS011;57506;50.092;15.804;2022-11-20T02:02:41;36.53;;;14.33;;
70026;SDS011;57506;50.092;15.804;2022-11-20T02:07:48;32.83;;;12.68;;
70026;SDS011;57506;50.092;15.804;2022-11-20T02:10:15;32.42;;;13.02;;
70026;SDS011;57506;50.092;15.804;2022-11-20T02:12:41;31.67;;;13.60;;
70026;SDS011;57506;50.092;15.804;2022-11-20T02:15:26;33.80;;;12.20;;
70026;SDS011;57506;50.092;15.804;2022-11-20T02:17:51;43.45;;;13.95;;
70026;SDS011;57506;50.092;15.804;2022-11-20T02:20:18;40.67;;;14.03;;
70026;SDS011;57506;50.092;15.804;2022-11-20T02:25:34;34.13;;;13.73;;
70026;SDS011;57506;50.092;15.804;2022-11-20T02:28:02;38.80;;;14.40;;
70026;SDS011;57506;50.092;15.804;2022-11-20T02:30:28;37.95;;;13.25;;
70026;SDS011;57506;50.092;15.804;2022-11-20T02:32:54;36.70;;;13.17;;
70026;SDS011;57506;50.092;15.804;2022-11-20T02:37:46;33.43;;;12.63;;
70026;SDS011;57506;50.092;15.804;2022-11-20T02:40:15;37.25;;;12.68;;
70026;SDS011;57506;50.092;15.804;2022-11-20T02:42:40;38.87;;;13.70;;
70026;SDS011;57506;50.092;15.804;2022-11-20T02:45:06;34.75;;;12.75;;
70026;SDS011;57506;50.092;15.804;2022-11-20T02:47:32;37.70;;;13.80;;
70026;SDS011;57506;50.092;15.804;2022-11-20T02:49:58;32.22;;;12.95;;
70026;SDS011;57506;50.092;15.804;2022-11-20T02:52:24;34.77;;;13.37;;
70026;SDS011;57506;50.092;15.804;2022-11-20T02:54:50;37.88;;;13.48;;
70026;SDS011;57506;50.092;15.804;2022-11-20T02:57:16;32.35;;;12.40;;
70026;SDS011;57506;50.092;15.804;2022-11-20T02:59:41;37.15;;;13.13;;
70026;SDS011;57506;50.092;15.804;2022-11-20T03:02:07;36.00;;;12.87;;
70026;SDS011;57506;50.092;15.804;2022-11-20T03:04:32;34.83;;;12.70;;
70026;SDS011;57506;50.092;15.804;2022-11-20T03:06:58;31.45;;;11.90;;
70026;SDS011;57506;50.092;15.804;2022-11-20T03:09:23;34.03;;;12.63;;
70026;SDS011;57506;50.092;15.804;2022-11-20T03:11:49;33.57;;;13.77;;
70026;SDS011;57506;50.092;15.804;2022-11-20T03:14:14;34.22;;;12.07;;
70026;SDS011;57506;50.092;15.804;2022-11-20T03:16:40;33.38;;;12.70;;
70026;SDS011;57506;50.092;15.804;2022-11-20T03:19:05;30.83;;;12.40;;
70026;SDS011;57506;50.092;15.804;2022-11-20T03:21:34;31.60;;;12.32;;
70026;SDS011;57506;50.092;15.804;2022-11-20T03:24:00;40.40;;;13.67;;
70026;SDS011;57506;50.092;15.804;2022-11-20T03:26:26;35.90;;;12.18;;
70026;SDS011;57506;50.092;15.804;2022-11-20T03:28:53;27.92;;;11.90;;
70026;SDS011;57506;50.092;15.804;2022-11-20T03:31:22;36.53;;;12.82;;
70026;SDS011;57506;50.092;15.804;2022-11-20T03:33:53;31.85;;;12.13;;
70026;SDS011;57506;50.092;15.804;2022-11-20T03:36:19;33.00;;;12.73;;
70026;SDS011;57506;50.092;15.804;2022-11-20T03:38:45;30.85;;;12.27;;
70026;SDS011;57506;50.092;15.804;2022-11-20T03:41:13;34.03;;;12.68;;
70026;SDS011;57506;50.092;15.804;2022-11-20T03:43:41;39.20;;;13.18;;
70026;SDS011;57506;50.092;15.804;2022-11-20T03:46:06;29.47;;;11.73;;
70026;SDS011;57506;50.092;15.804;2022-11-20T03:48:33;30.95;;;12.57;;
70026;SDS011;57506;50.092;15.804;2022-11-20T03:51:12;33.45;;;12.27;;
70026;SDS011;57506;50.092;15.804;2022-11-20T03:53:39;32.70;;;13.13;;
70026;SDS011;57506;50.092;15.804;2022-11-20T03:56:06;32.65;;;12.93;;
70026;SDS011;57506;50.092;15.804;2022-11-20T03:58:33;35.88;;;12.73;;
70026;SDS011;57506;50.092;15.804;2022-11-20T04:01:14;38.60;;;13.15;;
70026;SDS011;57506;50.092;15.804;2022-11-20T04:03:44;36.78;;;13.18;;
70026;SDS011;57506;50.092;15.804;2022-11-20T04:06:12;34.80;;;13.00;;
70026;SDS011;57506;50.092;15.804;2022-11-20T04:08:40;31.90;;;11.65;;
70026;SDS011;57506;50.092;15.804;2022-11-20T04:11:12;35.83;;;13.15;;
70026;SDS011;57506;50.092;15.804;2022-11-20T04:13:38;33.92;;;11.93;;
70026;SDS011;57506;50.092;15.804;2022-11-20T04:16:04;35.20;;;12.47;;
70026;SDS011;57506;50.092;15.804;2022-11-20T04:18:30;33.38;;;11.85;;
70026;SDS011;57506;50.092;15.804;2022-11-20T04:20:56;31.97;;;12.07;;
70026;SDS011;57506;50.092;15.804;2022-11-20T04:23:23;29.75;;;11.25;;
70026;SDS011;57506;50.092;15.804;2022-11-20T04:25:49;29.25;;;10.93;;
70026;SDS011;57506;50.092;15.804;2022-11-20T04:28:14;26.80;;;10.33;;
70026;SDS011;57506;50.092;15.804;2022-11-20T04:30:40;30.85;;;10.15;;
70026;SDS011;57506;50.092;15.804;2022-11-20T04:33:05;26.83;;;10.00;;
70026;SDS011;57506;50.092;15.804;2022-11-20T04:35:33;31.33;;;11.93;;
70026;SDS011;57506;50.092;15.804;2022-11-20T04:37:59;34.42;;;11.68;;
70026;SDS011;57506;50.092;15.804;2022-11-20T04:40:25;36.40;;;13.33;;
70026;SDS011;57506;50.092;15.804;2022-11-20T04:42:51;31.67;;;12.35;;
70026;SDS011;57506;50.092;15.804;2022-11-20T04:45:16;36.17;;;14.00;;
70026;SDS011;57506;50.092;15.804;2022-11-20T04:47:42;36.37;;;12.23;;
70026;SDS011;57506;50.092;15.804;2022-11-20T04:50:07;31.80;;;11.52;;
70026;SDS011;57506;50.092;15.804;2022-11-20T04:52:33;31.70;;;12.40;;
70026;SDS011;57506;50.092;15.804;2022-11-20T04:54:59;29.73;;;11.37;;
70026;SDS011;57506;50.092;15.804;2022-11-20T04:57:24;28.77;;;11.20;;
70026;SDS011;57506;50.092;15.804;2022-11-20T04:59:50;33.38;;;11.60;;
70026;SDS011;57506;50.092;15.804;2022-11-20T05:02:16;31.73;;;10.70;;
70026;SDS011;57506;50.092;15.804;2022-11-20T05:04:41;26.45;;;10.80;;
70026;SDS011;57506;50.092;15.804;2022-11-20T05:07:07;28.73;;;11.35;;
70026;SDS011;57506;50.092;15.804;2022-11-20T05:09:32;31.87;;;11.37;;
70026;SDS011;57506;50.092;15.804;2022-11-20T05:11:58;29.73;;;11.67;;
70026;SDS011;57506;50.092;15.804;2022-11-20T05:14:23;33.05;;;11.90;;
70026;SDS011;57506;50.092;15.804;2022-11-20T05:16:49;32.17;;;11.10;;
70026;SDS011;57506;50.092;15.804;2022-11-20T05:19:14;28.33;;;11.00;;
70026;SDS011;57506;50.092;15.804;2022-11-20T05:21:40;31.70;;;12.17;;
70026;SDS011;57506;50.092;15.804;2022-11-20T05:24:05;30.52;;;11.23;;
70026;SDS011;57506;50.092;15.804;2022-11-20T05:26:32;30.50;;;11.27;;
70026;SDS011;57506;50.092;15.804;2022-11-20T05:28:57;34.05;;;11.15;;
70026;SDS011;57506;50.092;15.804;2022-11-20T05:31:24;28.47;;;10.70;;
70026;SDS011;57506;50.092;15.804;2022-11-20T05:33:50;29.98;;;11.02;;
70026;SDS011;57506;50.092;15.804;2022-11-20T05:36:16;27.55;;;10.63;;
70026;SDS011;57506;50.092;15.804;2022-11-20T05:38:43;31.80;;;11.32;;
70026;SDS011;57506;50.092;15.804;2022-11-20T05:41:10;29.67;;;11.73;;
70026;SDS011;57506;50.092;15.804;2022-11-20T05:43:41;28.13;;;10.73;;
70026;SDS011;57506;50.092;15.804;2022-11-20T05:46:10;26.10;;;10.25;;
70026;SDS011;57506;50.092;15.804;2022-11-20T05:48:38;29.77;;;11.57;;
70026;SDS011;57506;50.092;15.804;2022-11-20T05:51:05;30.58;;;10.88;;
70026;SDS011;57506;50.092;15.804;2022-11-20T05:53:34;27.30;;;10.90;;
70026;SDS011;57506;50.092;15.804;2022-11-20T05:56:01;30.33;;;11.02;;
70026;SDS011;57506;50.092;15.804;2022-11-20T05:58:27;29.92;;;11.07;;
70026;SDS011;57506;50.092;15.804;2022-11-20T06:00:53;28.38;;;11.25;;
70026;SDS011;57506;50.092;15.804;2022-11-20T06:03:19;31.97;;;11.77;;
70026;SDS011;57506;50.092;15.804;2022-11-20T06:05:44;33.00;;;12.30;;
70026;SDS011;57506;50.092;15.804;2022-11-20T06:08:10;30.53;;;11.03;;
70026;SDS011;57506;50.092;15.804;2022-11-20T06:10:35;32.93;;;12.10;;
70026;SDS011;57506;50.092;15.804;2022-11-20T06:13:01;28.17;;;11.07;;
70026;SDS011;57506;50.092;15.804;2022-11-20T06:15:26;34.17;;;12.02;;
70026;SDS011;57506;50.092;15.804;2022-11-20T06:17:52;30.37;;;12.93;;
70026;SDS011;57506;50.092;15.804;2022-11-20T06:20:19;32.63;;;13.07;;
70026;SDS011;57506;50.092;15.804;2022-11-20T06:22:45;32.27;;;13.27;;
70026;SDS011;57506;50.092;15.804;2022-11-20T06:25:11;34.13;;;13.00;;
70026;SDS011;57506;50.092;15.804;2022-11-20T06:27:36;39.77;;;14.63;;
70026;SDS011;57506;50.092;15.804;2022-11-20T06:30:02;37.00;;;13.87;;
70026;SDS011;57506;50.092;15.804;2022-11-20T06:32:28;42.03;;;16.67;;
70026;SDS011;57506;50.092;15.804;2022-11-20T06:34:54;43.92;;;17.20;;
70026;SDS011;57506;50.092;15.804;2022-11-20T06:37:19;43.90;;;16.93;;
70026;SDS011;57506;50.092;15.804;2022-11-20T06:39:45;43.93;;;17.27;;
70026;SDS011;57506;50.092;15.804;2022-11-20T06:42:10;46.90;;;15.87;;
70026;SDS011;57506;50.092;15.804;2022-11-20T06:44:36;44.75;;;17.13;;
70026;SDS011;57506;50.092;15.804;2022-11-20T06:47:01;41.73;;;16.40;;
70026;SDS011;57506;50.092;15.804;2022-11-20T06:49:27;43.90;;;15.10;;
70026;SDS011;57506;50.092;15.804;2022-11-20T06:51:52;42.42;;;15.45;;
70026;SDS011;57506;50.092;15.804;2022-11-20T06:54:18;40.22;;;15.95;;
70026;SDS011;57506;50.092;15.804;2022-11-20T06:56:46;71.93;;;25.53;;
70026;SDS011;57506;50.092;15.804;2022-11-20T06:59:13;51.38;;;19.35;;
70026;SDS011;57506;50.092;15.804;2022-11-20T07:01:38;238.57;;;84.60;;
70026;SDS011;57506;50.092;15.804;2022-11-20T07:04:04;56.83;;;22.85;;
70026;SDS011;57506;50.092;15.804;2022-11-20T07:06:30;38.97;;;17.07;;
70026;SDS011;57506;50.092;15.804;2022-11-20T07:08:56;36.25;;;14.98;;
70026;SDS011;57506;50.092;15.804;2022-11-20T07:11:22;101.25;;;39.83;;
70026;SDS011;57506;50.092;15.804;2022-11-20T07:13:48;176.43;;;63.28;;
70026;SDS011;57506;50.092;15.804;2022-11-20T07:16:13;71.82;;;31.92;;
70026;SDS011;57506;50.092;15.804;2022-11-20T07:18:40;50.13;;;18.50;;
70026;SDS011;57506;50.092;15.804;2022-11-20T07:21:07;60.00;;;24.77;;
70026;SDS011;57506;50.092;15.804;2022-11-20T07:23:33;43.60;;;17.58;;
70026;SDS011;57506;50.092;15.804;2022-11-20T07:26:03;69.73;;;32.37;;
70026;SDS011;57506;50.092;15.804;2022-11-20T07:28:33;48.80;;;19.35;;
70026;SDS011;57506;50.092;15.804;2022-11-20T07:30:58;49.60;;;20.33;;
70026;SDS011;57506;50.092;15.804;2022-11-20T07:33:24;46.40;;;19.20;;
70026;SDS011;57506;50.092;15.804;2022-11-20T07:35:50;49.13;;;22.33;;
70026;SDS011;57506;50.092;15.804;2022-11-20T07:38:15;52.03;;;19.97;;
70026;SDS011;57506;50.092;15.804;2022-11-20T07:40:41;44.15;;;18.52;;
70026;SDS011;57506;50.092;15.804;2022-11-20T07:43:07;47.00;;;18.73;;
70026;SDS011;57506;50.092;15.804;2022-11-20T07:45:32;53.25;;;20.00;;
70026;SDS011;57506;50.092;15.804;2022-11-20T07:47:58;47.80;;;18.77;;
70026;SDS011;57506;50.092;15.804;2022-11-20T07:50:24;45.65;;;18.15;;
70026;SDS011;57506;50.092;15.804;2022-11-20T07:52:49;56.53;;;21.40;;
70026;SDS011;57506;50.092;15.804;2022-11-20T07:55:15;50.07;;;19.67;;
70026;SDS011;57506;50.092;15.804;2022-11-20T07:57:41;46.13;;;18.42;;
70026;SDS011;57506;50.092;15.804;2022-11-20T08:00:07;46.70;;;19.07;;
70026;SDS011;57506;50.092;15.804;2022-11-20T08:02:36;48.33;;;19.00;;
70026;SDS011;57506;50.092;15.804;2022-11-20T08:05:04;45.85;;;18.10;;
70026;SDS011;57506;50.092;15.804;2022-11-20T08:07:34;41.42;;;16.85;;
70026;SDS011;57506;50.092;15.804;2022-11-20T08:10:08;42.83;;;17.27;;
70026;SDS011;57506;50.092;15.804;2022-11-20T08:12:36;45.15;;;18.63;;
70026;SDS011;57506;50.092;15.804;2022-11-20T08:15:26;47.63;;;19.35;;
70026;SDS011;57506;50.092;15.804;2022-11-20T08:17:58;50.87;;;20.23;;
70026;SDS011;57506;50.092;15.804;2022-11-20T08:20:24;49.70;;;21.08;;
70026;SDS011;57506;50.092;15.804;2022-11-20T08:22:50;45.45;;;19.30;;
70026;SDS011;57506;50.092;15.804;2022-11-20T08:25:15;48.67;;;18.53;;
70026;SDS011;57506;50.092;15.804;2022-11-20T08:27:41;42.72;;;16.40;;
70026;SDS011;57506;50.092;15.804;2022-11-20T08:30:07;38.22;;;16.40;;
70026;SDS011;57506;50.092;15.804;2022-11-20T08:32:33;39.72;;;16.92;;
70026;SDS011;57506;50.092;15.804;2022-11-20T08:35:01;50.00;;;19.48;;
70026;SDS011;57506;50.092;15.804;2022-11-20T08:37:26;48.70;;;20.38;;
70026;SDS011;57506;50.092;15.804;2022-11-20T08:39:52;50.03;;;21.70;;
70026;SDS011;57506;50.092;15.804;2022-11-20T08:42:18;46.33;;;20.98;;
70026;SDS011;57506;50.092;15.804;2022-11-20T08:44:44;45.07;;;18.90;;
70026;SDS011;57506;50.092;15.804;2022-11-20T08:47:09;48.88;;;19.80;;
70026;SDS011;57506;50.092;15.804;2022-11-20T08:49:35;50.33;;;22.80;;
70026;SDS011;57506;50.092;15.804;2022-11-20T08:52:01;42.97;;;18.20;;
70026;SDS011;57506;50.092;15.804;2022-11-20T08:54:26;44.08;;;18.23;;
70026;SDS011;57506;50.092;15.804;2022-11-20T08:56:52;45.95;;;19.20;;
70026;SDS011;57506;50.092;15.804;2022-11-20T08:59:17;40.90;;;18.83;;
70026;SDS011;57506;50.092;15.804;2022-11-20T09:01:43;49.40;;;18.48;;
70026;SDS011;57506;50.092;15.804;2022-11-20T09:04:08;40.77;;;17.77;;
70026;SDS011;57506;50.092;15.804;2022-11-20T09:06:34;44.13;;;18.37;;
70026;SDS011;57506;50.092;15.804;2022-11-20T09:09:00;44.10;;;18.67;;
70026;SDS011;57506;50.092;15.804;2022-11-20T09:11:25;40.43;;;17.03;;
70026;SDS011;57506;50.092;15.804;2022-11-20T09:13:51;45.42;;;18.92;;
70026;SDS011;57506;50.092;15.804;2022-11-20T09:16:16;44.10;;;18.83;;
70026;SDS011;57506;50.092;15.804;2022-11-20T09:18:42;47.70;;;19.23;;
70026;SDS011;57506;50.092;15.804;2022-11-20T09:21:12;44.38;;;19.30;;
70026;SDS011;57506;50.092;15.804;2022-11-20T09:23:39;50.37;;;19.20;;
70026;SDS011;57506;50.092;15.804;2022-11-20T09:26:05;49.40;;;19.58;;
70026;SDS011;57506;50.092;15.804;2022-11-20T09:28:33;45.55;;;19.15;;
70026;SDS011;57506;50.092;15.804;2022-11-20T09:30:59;50.70;;;19.75;;
70026;SDS011;57506;50.092;15.804;2022-11-20T09:33:25;46.60;;;19.50;;
70026;SDS011;57506;50.092;15.804;2022-11-20T09:35:51;46.83;;;21.00;;
70026;SDS011;57506;50.092;15.804;2022-11-20T09:38:18;47.42;;;18.73;;
70026;SDS011;57506;50.092;15.804;2022-11-20T09:40:49;44.97;;;18.17;;
70026;SDS011;57506;50.092;15.804;2022-11-20T09:54:45;41.80;;;17.97;;
70026;SDS011;57506;50.092;15.804;2022-11-20T09:57:12;43.88;;;17.85;;
70026;SDS011;57506;50.092;15.804;2022-11-20T09:59:43;51.55;;;21.40;;
70026;SDS011;57506;50.092;15.804;2022-11-20T10:02:15;46.85;;;19.88;;
70026;SDS011;57506;50.092;15.804;2022-11-20T10:04:43;48.67;;;19.33;;
70026;SDS011;57506;50.092;15.804;2022-11-20T10:07:20;43.50;;;17.45;;
70026;SDS011;57506;50.092;15.804;2022-11-20T10:09:54;46.13;;;20.83;;
70026;SDS011;57506;50.092;15.804;2022-11-20T10:15:30;45.92;;;20.05;;
70026;SDS011;57506;50.092;15.804;2022-11-20T10:20:57;47.75;;;19.75;;
70026;SDS011;57506;50.092;15.804;2022-11-20T10:26:49;44.60;;;19.90;;
70026;SDS011;57506;50.092;15.804;2022-11-20T10:29:29;45.10;;;18.25;;
70026;SDS011;57506;50.092;15.804;2022-11-20T10:32:10;47.28;;;18.48;;
70026;SDS011;57506;50.092;15.804;2022-11-20T10:37:16;39.65;;;16.58;;
70026;SDS011;57506;50.092;15.804;2022-11-20T10:39:55;45.17;;;18.58;;
70026;SDS011;57506;50.092;15.804;2022-11-20T10:42:46;45.88;;;18.65;;
70026;SDS011;57506;50.092;15.804;2022-11-20T10:56:12;43.95;;;19.63;;
70026;SDS011;57506;50.092;15.804;2022-11-20T11:01:38;42.38;;;18.10;;
70026;SDS011;57506;50.092;15.804;2022-11-20T11:04:07;43.92;;;18.63;;
70026;SDS011;57506;50.092;15.804;2022-11-20T11:06:48;44.95;;;18.13;;
70026;SDS011;57506;50.092;15.804;2022-11-20T11:09:24;47.67;;;19.83;;
70026;SDS011;57506;50.092;15.804;2022-11-20T11:11:58;44.13;;;18.05;;
70026;SDS011;57506;50.092;15.804;2022-11-20T11:14:23;41.25;;;18.42;;
70026;SDS011;57506;50.092;15.804;2022-11-20T11:16:56;51.30;;;19.03;;
70026;SDS011;57506;50.092;15.804;2022-11-20T11:19:23;41.22;;;17.45;;
70026;SDS011;57506;50.092;15.804;2022-11-20T11:21:58;45.38;;;18.50;;
70026;SDS011;57506;50.092;15.804;2022-11-20T11:24:28;45.55;;;18.58;;
70026;SDS011;57506;50.092;15.804;2022-11-20T11:26:57;43.05;;;17.45;;
70026;SDS011;57506;50.092;15.804;2022-11-20T11:29:32;47.50;;;19.35;;
70026;SDS011;57506;50.092;15.804;2022-11-20T11:32:08;41.05;;;18.15;;
70026;SDS011;57506;50.092;15.804;2022-11-20T11:34:34;43.35;;;17.92;;
70026;SDS011;57506;50.092;15.804;2022-11-20T11:37:00;54.63;;;22.45;;
70026;SDS011;57506;50.092;15.804;2022-11-20T11:39:28;50.50;;;21.45;;
70026;SDS011;57506;50.092;15.804;2022-11-20T11:41:56;44.40;;;20.77;;
70026;SDS011;57506;50.092;15.804;2022-11-20T11:44:30;48.15;;;20.48;;
70026;SDS011;57506;50.092;15.804;2022-11-20T11:47:23;46.13;;;19.73;;
70026;SDS011;57506;50.092;15.804;2022-11-20T11:52:56;43.88;;;17.40;;
70026;SDS011;57506;50.092;15.804;2022-11-20T12:01:26;41.45;;;17.10;;
70026;SDS011;57506;50.092;15.804;2022-11-20T12:04:05;41.50;;;17.38;;
70026;SDS011;57506;50.092;15.804;2022-11-20T12:06:45;44.55;;;19.40;;
70026;SDS011;57506;50.092;15.804;2022-11-20T12:09:16;43.53;;;19.55;;
70026;SDS011;57506;50.092;15.804;2022-11-20T12:11:59;44.08;;;19.52;;
70026;SDS011;57506;50.092;15.804;2022-11-20T12:14:37;45.38;;;18.35;;
70026;SDS011;57506;50.092;15.804;2022-11-20T12:17:07;43.08;;;17.70;;
70026;SDS011;57506;50.092;15.804;2022-11-20T12:19:36;48.53;;;19.38;;
70026;SDS011;57506;50.092;15.804;2022-11-20T12:22:07;48.38;;;18.10;;
70026;SDS011;57506;50.092;15.804;2022-11-20T12:30:16;43.33;;;17.80;;
70026;SDS011;57506;50.092;15.804;2022-11-20T12:35:42;47.75;;;19.58;;
70026;SDS011;57506;50.092;15.804;2022-11-20T12:38:24;42.83;;;16.70;;
70026;SDS011;57506;50.092;15.804;2022-11-20T12:41:21;43.60;;;18.05;;
70026;SDS011;57506;50.092;15.804;2022-11-20T12:53:11;48.43;;;19.93;;
70026;SDS011;57506;50.092;15.804;2022-11-20T12:58:54;51.80;;;22.20;;
70026;SDS011;57506;50.092;15.804;2022-11-20T13:07:02;52.43;;;23.70;;
70026;SDS011;57506;50.092;15.804;2022-11-20T13:09:31;47.95;;;21.33;;
70026;SDS011;57506;50.092;15.804;2022-11-20T13:12:05;51.78;;;22.05;;
70026;SDS011;57506;50.092;15.804;2022-11-20T13:14:46;53.25;;;21.95;;
70026;SDS011;57506;50.092;15.804;2022-11-20T13:17:36;47.20;;;21.67;;
70026;SDS011;57506;50.092;15.804;2022-11-20T13:20:05;50.43;;;21.73;;
70026;SDS011;57506;50.092;15.804;2022-11-20T13:27:49;44.70;;;18.63;;
70026;SDS011;57506;50.092;15.804;2022-11-20T13:30:16;48.22;;;19.73;;
70026;SDS011;57506;50.092;15.804;2022-11-20T13:35:27;45.47;;;19.42;;
70026;SDS011;57506;50.092;15.804;2022-11-20T13:38:09;43.03;;;19.10;;
70026;SDS011;57506;50.092;15.804;2022-11-20T13:40:36;46.75;;;19.38;;
70026;SDS011;57506;50.092;15.804;2022-11-20T13:43:49;46.60;;;18.95;;
70026;SDS011;57506;50.092;15.804;2022-11-20T13:46:08;47.90;;;18.90;;
70026;SDS011;57506;50.092;15.804;2022-11-20T13:48:41;51.90;;;20.95;;
70026;SDS011;57506;50.092;15.804;2022-11-20T13:51:26;50.67;;;20.63;;
70026;SDS011;57506;50.092;15.804;2022-11-20T13:56:46;51.00;;;21.92;;
70026;SDS011;57506;50.092;15.804;2022-11-20T14:02:16;59.83;;;28.75;;
70026;SDS011;57506;50.092;15.804;2022-11-20T14:04:44;51.35;;;21.52;;
70026;SDS011;57506;50.092;15.804;2022-11-20T14:07:13;46.38;;;21.10;;
70026;SDS011;57506;50.092;15.804;2022-11-20T14:09:48;50.15;;;21.42;;
70026;SDS011;57506;50.092;15.804;2022-11-20T14:12:20;49.97;;;21.33;;
70026;SDS011;57506;50.092;15.804;2022-11-20T14:14:49;49.53;;;20.83;;
70026;SDS011;57506;50.092;15.804;2022-11-20T14:17:37;50.97;;;22.38;;
70026;SDS011;57506;50.092;15.804;2022-11-20T14:20:06;53.22;;;21.15;;
70026;SDS011;57506;50.092;15.804;2022-11-20T14:22:37;55.42;;;22.50;;
70026;SDS011;57506;50.092;15.804;2022-11-20T14:25:17;53.57;;;21.93;;
70026;SDS011;57506;50.092;15.804;2022-11-20T14:28:04;51.38;;;21.90;;
70026;SDS011;57506;50.092;15.804;2022-11-20T14:30:37;57.60;;;24.20;;
70026;SDS011;57506;50.092;15.804;2022-11-20T14:33:12;55.30;;;22.80;;
70026;SDS011;57506;50.092;15.804;2022-11-20T14:35:46;68.03;;;28.52;;
70026;SDS011;57506;50.092;15.804;2022-11-20T14:38:16;66.25;;;30.70;;
70026;SDS011;57506;50.092;15.804;2022-11-20T14:40:43;61.08;;;26.65;;
70026;SDS011;57506;50.092;15.804;2022-11-20T14:43:26;77.68;;;31.13;;
70026;SDS011;57506;50.092;15.804;2022-11-20T14:46:02;73.15;;;29.13;;
70026;SDS011;57506;50.092;15.804;2022-11-20T14:48:34;63.78;;;28.42;;
70026;SDS011;57506;50.092;15.804;2022-11-20T14:51:04;57.13;;;24.77;;
70026;SDS011;57506;50.092;15.804;2022-11-20T14:53:30;78.85;;;31.55;;
70026;SDS011;57506;50.092;15.804;2022-11-20T14:55:59;78.60;;;30.87;;
70026;SDS011;57506;50.092;15.804;2022-11-20T14:58:31;77.53;;;30.85;;
70026;SDS011;57506;50.092;15.804;2022-11-20T15:01:02;82.90;;;31.88;;
70026;SDS011;57506;50.092;15.804;2022-11-20T15:03:31;69.33;;;29.10;;
70026;SDS011;57506;50.092;15.804;2022-11-20T15:05:58;54.22;;;23.85;;
70026;SDS011;57506;50.092;15.804;2022-11-20T15:08:24;55.42;;;23.10;;
70026;SDS011;57506;50.092;15.804;2022-11-20T15:10:50;54.33;;;24.00;;
70026;SDS011;57506;50.092;15.804;2022-11-20T15:13:24;54.22;;;23.33;;
70026;SDS011;57506;50.092;15.804;2022-11-20T15:15:52;50.63;;;21.48;;
70026;SDS011;57506;50.092;15.804;2022-11-20T15:18:33;53.05;;;23.38;;
70026;SDS011;57506;50.092;15.804;2022-11-20T15:21:06;55.83;;;23.10;;
70026;SDS011;57506;50.092;15.804;2022-11-20T15:23:36;51.80;;;22.80;;
70026;SDS011;57506;50.092;15.804;2022-11-20T15:26:03;60.90;;;25.50;;
70026;SDS011;57506;50.092;15.804;2022-11-20T15:28:31;62.50;;;24.50;;
70026;SDS011;57506;50.092;15.804;2022-11-20T15:31:00;51.83;;;22.40;;
70026;SDS011;57506;50.092;15.804;2022-11-20T15:33:28;56.13;;;23.50;;
70026;SDS011;57506;50.092;15.804;2022-11-20T15:35:54;54.45;;;22.92;;
70026;SDS011;57506;50.092;15.804;2022-11-20T15:38:20;51.92;;;22.20;;
70026;SDS011;57506;50.092;15.804;2022-11-20T15:40:45;51.30;;;20.93;;
70026;SDS011;57506;50.092;15.804;2022-11-20T15:43:11;53.05;;;21.92;;
70026;SDS011;57506;50.092;15.804;2022-11-20T15:45:41;57.30;;;24.07;;
70026;SDS011;57506;50.092;15.804;2022-11-20T15:53:39;52.33;;;21.70;;
70026;SDS011;57506;50.092;15.804;2022-11-20T15:56:07;55.90;;;23.00;;
70026;SDS011;57506;50.092;15.804;2022-11-20T15:58:36;69.78;;;29.65;;
70026;SDS011;57506;50.092;15.804;2022-11-20T16:01:02;75.70;;;31.13;;
70026;SDS011;57506;50.092;15.804;2022-11-20T16:03:28;70.80;;;29.25;;